sensor_id;sensor_type;location;lat;lon;timestamp;P1;durP1;ratioP1;P2;durP2;ratioP2
61250;SDS011;47126;47.508;8.590;2023-04-24T00:00:04;1.88;;;1.00;;
61250;SDS011;47126;47.508;8.590;2023-04-24T00:02:31;1.58;;;1.08;;
61250;SDS011;47126;47.508;8.590;2023-04-24T00:04:57;1.05;;;0.85;;
61250;SDS011;47126;47.508;8.590;2023-04-24T00:07:28;1.42;;;1.05;;
61250;SDS011;47126;47.508;8.590;2023-04-24T00:09:54;1.33;;;0.88;;
61250;SDS011;47126;47.508;8.590;2023-04-24T00:12:20;2.00;;;1.10;;
61250;SDS011;47126;47.508;8.590;2023-04-24T00:14:46;2.85;;;1.30;;
61250;SDS011;47126;47.508;8.590;2023-04-24T00:17:12;2.15;;;0.80;;
61250;SDS011;47126;47.508;8.590;2023-04-24T00:19:39;1.20;;;1.10;;
61250;SDS011;47126;47.508;8.590;2023-04-24T00:22:05;2.75;;;1.00;;
61250;SDS011;47126;47.508;8.590;2023-04-24T00:24:31;0.70;;;0.70;;
61250;SDS011;47126;47.508;8.590;2023-04-24T00:26:57;0.75;;;0.60;;
61250;SDS011;47126;47.508;8.590;2023-04-24T00:29:23;1.50;;;0.90;;
61250;SDS011;47126;47.508;8.590;2023-04-24T00:31:49;0.80;;;0.63;;
61250;SDS011;47126;47.508;8.590;2023-04-24T00:34:15;1.10;;;0.88;;
61250;SDS011;47126;47.508;8.590;2023-04-24T00:36:41;1.27;;;0.80;;
61250;SDS011;47126;47.508;8.590;2023-04-24T00:39:07;1.83;;;0.90;;
61250;SDS011;47126;47.508;8.590;2023-04-24T00:41:33;2.15;;;0.80;;
61250;SDS011;47126;47.508;8.590;2023-04-24T00:43:59;2.70;;;0.85;;
61250;SDS011;47126;47.508;8.590;2023-04-24T00:46:25;3.33;;;0.63;;
61250;SDS011;47126;47.508;8.590;2023-04-24T00:48:51;1.85;;;0.60;;
61250;SDS011;47126;47.508;8.590;2023-04-24T00:51:17;1.95;;;1.00;;
61250;SDS011;47126;47.508;8.590;2023-04-24T00:53:43;1.00;;;0.88;;
61250;SDS011;47126;47.508;8.590;2023-04-24T00:56:09;3.45;;;1.00;;
61250;SDS011;47126;47.508;8.590;2023-04-24T00:58:36;1.42;;;0.73;;
61250;SDS011;47126;47.508;8.590;2023-04-24T01:01:02;0.80;;;0.60;;
61250;SDS011;47126;47.508;8.590;2023-04-24T01:03:31;1.73;;;0.65;;
61250;SDS011;47126;47.508;8.590;2023-04-24T01:05:58;0.65;;;0.40;;
61250;SDS011;47126;47.508;8.590;2023-04-24T01:08:24;0.82;;;0.50;;
61250;SDS011;47126;47.508;8.590;2023-04-24T01:10:52;0.82;;;0.50;;
61250;SDS011;47126;47.508;8.590;2023-04-24T01:13:21;3.40;;;0.40;;
61250;SDS011;47126;47.508;8.590;2023-04-24T01:15:47;1.30;;;0.40;;
61250;SDS011;47126;47.508;8.590;2023-04-24T01:18:14;3.15;;;0.50;;
61250;SDS011;47126;47.508;8.590;2023-04-24T01:20:40;2.67;;;0.60;;
61250;SDS011;47126;47.508;8.590;2023-04-24T01:23:07;1.40;;;0.52;;
61250;SDS011;47126;47.508;8.590;2023-04-24T01:25:34;1.08;;;0.80;;
61250;SDS011;47126;47.508;8.590;2023-04-24T01:28:00;0.50;;;0.50;;
61250;SDS011;47126;47.508;8.590;2023-04-24T01:30:26;0.82;;;0.68;;
61250;SDS011;47126;47.508;8.590;2023-04-24T01:32:52;1.65;;;0.70;;
61250;SDS011;47126;47.508;8.590;2023-04-24T01:35:18;2.85;;;0.70;;
61250;SDS011;47126;47.508;8.590;2023-04-24T01:37:44;1.85;;;0.40;;
61250;SDS011;47126;47.508;8.590;2023-04-24T01:40:11;0.60;;;0.40;;
61250;SDS011;47126;47.508;8.590;2023-04-24T01:42:37;0.75;;;0.25;;
61250;SDS011;47126;47.508;8.590;2023-04-24T01:45:04;2.95;;;0.60;;
61250;SDS011;47126;47.508;8.590;2023-04-24T01:47:31;1.05;;;0.57;;
61250;SDS011;47126;47.508;8.590;2023-04-24T01:49:57;0.68;;;0.50;;
61250;SDS011;47126;47.508;8.590;2023-04-24T01:52:23;4.55;;;3.00;;
61250;SDS011;47126;47.508;8.590;2023-04-24T01:54:49;5.97;;;2.22;;
61250;SDS011;47126;47.508;8.590;2023-04-24T01:57:16;2.42;;;0.93;;
61250;SDS011;47126;47.508;8.590;2023-04-24T01:59:42;2.30;;;1.17;;
61250;SDS011;47126;47.508;8.590;2023-04-24T02:02:08;1.83;;;0.70;;
61250;SDS011;47126;47.508;8.590;2023-04-24T02:04:34;2.88;;;0.70;;
61250;SDS011;47126;47.508;8.590;2023-04-24T02:07:00;0.60;;;0.50;;
61250;SDS011;47126;47.508;8.590;2023-04-24T02:09:26;1.17;;;0.50;;
61250;SDS011;47126;47.508;8.590;2023-04-24T02:11:51;0.40;;;0.40;;
61250;SDS011;47126;47.508;8.590;2023-04-24T02:14:17;0.30;;;0.30;;
61250;SDS011;47126;47.508;8.590;2023-04-24T02:16:43;1.30;;;0.50;;
61250;SDS011;47126;47.508;8.590;2023-04-24T02:19:10;0.88;;;0.50;;
61250;SDS011;47126;47.508;8.590;2023-04-24T02:21:36;0.32;;;0.30;;
61250;SDS011;47126;47.508;8.590;2023-04-24T02:24:02;0.20;;;0.20;;
61250;SDS011;47126;47.508;8.590;2023-04-24T02:26:28;0.75;;;0.32;;
61250;SDS011;47126;47.508;8.590;2023-04-24T02:28:56;0.43;;;0.35;;
61250;SDS011;47126;47.508;8.590;2023-04-24T02:31:21;0.77;;;0.50;;
61250;SDS011;47126;47.508;8.590;2023-04-24T02:33:48;0.70;;;0.50;;
61250;SDS011;47126;47.508;8.590;2023-04-24T02:36:14;0.55;;;0.40;;
61250;SDS011;47126;47.508;8.590;2023-04-24T02:38:40;0.47;;;0.47;;
61250;SDS011;47126;47.508;8.590;2023-04-24T02:41:09;0.40;;;0.30;;
61250;SDS011;47126;47.508;8.590;2023-04-24T02:43:35;1.45;;;0.40;;
61250;SDS011;47126;47.508;8.590;2023-04-24T02:46:01;1.60;;;1.00;;
61250;SDS011;47126;47.508;8.590;2023-04-24T02:48:27;2.22;;;0.50;;
61250;SDS011;47126;47.508;8.590;2023-04-24T02:50:53;0.50;;;0.50;;
61250;SDS011;47126;47.508;8.590;2023-04-24T02:53:20;1.13;;;0.50;;
61250;SDS011;47126;47.508;8.590;2023-04-24T02:55:49;0.77;;;0.52;;
61250;SDS011;47126;47.508;8.590;2023-04-24T02:58:15;0.50;;;0.50;;
61250;SDS011;47126;47.508;8.590;2023-04-24T03:00:42;0.52;;;0.45;;
61250;SDS011;47126;47.508;8.590;2023-04-24T03:03:08;0.38;;;0.38;;
61250;SDS011;47126;47.508;8.590;2023-04-24T03:05:34;0.45;;;0.40;;
61250;SDS011;47126;47.508;8.590;2023-04-24T03:08:00;0.52;;;0.30;;
61250;SDS011;47126;47.508;8.590;2023-04-24T03:10:26;0.80;;;0.32;;
61250;SDS011;47126;47.508;8.590;2023-04-24T03:12:52;0.43;;;0.30;;
61250;SDS011;47126;47.508;8.590;2023-04-24T03:15:19;0.50;;;0.50;;
61250;SDS011;47126;47.508;8.590;2023-04-24T03:17:45;1.02;;;0.40;;
61250;SDS011;47126;47.508;8.590;2023-04-24T03:20:12;0.75;;;0.40;;
61250;SDS011;47126;47.508;8.590;2023-04-24T03:22:39;1.17;;;0.70;;
61250;SDS011;47126;47.508;8.590;2023-04-24T03:25:05;1.17;;;1.00;;
61250;SDS011;47126;47.508;8.590;2023-04-24T03:27:34;3.38;;;1.10;;
61250;SDS011;47126;47.508;8.590;2023-04-24T03:30:01;5.18;;;2.05;;
61250;SDS011;47126;47.508;8.590;2023-04-24T03:32:27;1.35;;;1.20;;
61250;SDS011;47126;47.508;8.590;2023-04-24T03:34:53;0.88;;;0.75;;
61250;SDS011;47126;47.508;8.590;2023-04-24T03:37:20;0.75;;;0.70;;
61250;SDS011;47126;47.508;8.590;2023-04-24T03:39:46;2.05;;;0.50;;
61250;SDS011;47126;47.508;8.590;2023-04-24T03:42:12;0.70;;;0.70;;
61250;SDS011;47126;47.508;8.590;2023-04-24T03:44:39;1.20;;;0.60;;
61250;SDS011;47126;47.508;8.590;2023-04-24T03:47:09;1.10;;;0.50;;
61250;SDS011;47126;47.508;8.590;2023-04-24T03:49:35;0.40;;;0.40;;
61250;SDS011;47126;47.508;8.590;2023-04-24T03:52:01;5.63;;;0.80;;
61250;SDS011;47126;47.508;8.590;2023-04-24T03:54:27;2.35;;;0.90;;
61250;SDS011;47126;47.508;8.590;2023-04-24T03:56:53;0.32;;;0.30;;
61250;SDS011;47126;47.508;8.590;2023-04-24T03:59:19;0.85;;;0.50;;
61250;SDS011;47126;47.508;8.590;2023-04-24T04:01:45;0.77;;;0.40;;
61250;SDS011;47126;47.508;8.590;2023-04-24T04:04:13;1.48;;;0.40;;
61250;SDS011;47126;47.508;8.590;2023-04-24T04:06:39;3.30;;;0.50;;
61250;SDS011;47126;47.508;8.590;2023-04-24T04:09:05;0.30;;;0.30;;
61250;SDS011;47126;47.508;8.590;2023-04-24T04:11:32;1.02;;;0.40;;
61250;SDS011;47126;47.508;8.590;2023-04-24T04:13:58;2.15;;;0.40;;
61250;SDS011;47126;47.508;8.590;2023-04-24T04:16:26;0.60;;;0.40;;
61250;SDS011;47126;47.508;8.590;2023-04-24T04:18:52;0.40;;;0.40;;
61250;SDS011;47126;47.508;8.590;2023-04-24T04:21:18;0.30;;;0.30;;
61250;SDS011;47126;47.508;8.590;2023-04-24T04:26:15;0.30;;;0.30;;
61250;SDS011;47126;47.508;8.590;2023-04-24T04:28:41;1.35;;;0.40;;
61250;SDS011;47126;47.508;8.590;2023-04-24T04:31:09;3.60;;;0.50;;
61250;SDS011;47126;47.508;8.590;2023-04-24T04:33:36;1.05;;;0.47;;
61250;SDS011;47126;47.508;8.590;2023-04-24T04:36:04;2.47;;;0.40;;
61250;SDS011;47126;47.508;8.590;2023-04-24T04:38:30;0.40;;;0.40;;
61250;SDS011;47126;47.508;8.590;2023-04-24T04:40:57;0.55;;;0.30;;
61250;SDS011;47126;47.508;8.590;2023-04-24T04:43:23;1.63;;;0.50;;
61250;SDS011;47126;47.508;8.590;2023-04-24T04:45:50;1.35;;;0.50;;
61250;SDS011;47126;47.508;8.590;2023-04-24T04:48:16;3.03;;;0.50;;
61250;SDS011;47126;47.508;8.590;2023-04-24T04:50:43;0.38;;;0.30;;
61250;SDS011;47126;47.508;8.590;2023-04-24T04:53:09;1.40;;;1.00;;
61250;SDS011;47126;47.508;8.590;2023-04-24T04:55:35;0.98;;;0.70;;
61250;SDS011;47126;47.508;8.590;2023-04-24T04:58:01;1.40;;;1.08;;
61250;SDS011;47126;47.508;8.590;2023-04-24T05:00:27;0.63;;;0.60;;
61250;SDS011;47126;47.508;8.590;2023-04-24T05:02:58;1.42;;;0.50;;
61250;SDS011;47126;47.508;8.590;2023-04-24T05:05:24;0.70;;;0.60;;
61250;SDS011;47126;47.508;8.590;2023-04-24T05:07:50;1.40;;;0.90;;
61250;SDS011;47126;47.508;8.590;2023-04-24T05:10:16;1.27;;;0.98;;
61250;SDS011;47126;47.508;8.590;2023-04-24T05:12:42;2.78;;;0.90;;
61250;SDS011;47126;47.508;8.590;2023-04-24T05:15:08;2.05;;;0.90;;
61250;SDS011;47126;47.508;8.590;2023-04-24T05:17:35;1.88;;;0.88;;
61250;SDS011;47126;47.508;8.590;2023-04-24T05:20:01;3.92;;;0.98;;
61250;SDS011;47126;47.508;8.590;2023-04-24T05:22:33;1.92;;;1.02;;
61250;SDS011;47126;47.508;8.590;2023-04-24T05:24:59;1.10;;;0.95;;
61250;SDS011;47126;47.508;8.590;2023-04-24T05:27:25;0.95;;;0.93;;
61250;SDS011;47126;47.508;8.590;2023-04-24T05:29:51;0.95;;;0.80;;
61250;SDS011;47126;47.508;8.590;2023-04-24T05:32:17;1.50;;;1.20;;
61250;SDS011;47126;47.508;8.590;2023-04-24T05:34:43;2.38;;;0.80;;
61250;SDS011;47126;47.508;8.590;2023-04-24T05:37:13;1.35;;;1.02;;
61250;SDS011;47126;47.508;8.590;2023-04-24T05:39:41;1.10;;;0.90;;
61250;SDS011;47126;47.508;8.590;2023-04-24T05:42:07;1.48;;;0.70;;
61250;SDS011;47126;47.508;8.590;2023-04-24T05:44:33;1.67;;;1.10;;
61250;SDS011;47126;47.508;8.590;2023-04-24T05:46:59;2.20;;;0.98;;
61250;SDS011;47126;47.508;8.590;2023-04-24T05:49:26;1.83;;;1.27;;
61250;SDS011;47126;47.508;8.590;2023-04-24T05:51:52;1.95;;;1.20;;
61250;SDS011;47126;47.508;8.590;2023-04-24T05:54:18;2.05;;;1.23;;
61250;SDS011;47126;47.508;8.590;2023-04-24T05:56:44;1.83;;;1.40;;
61250;SDS011;47126;47.508;8.590;2023-04-24T05:59:11;2.25;;;1.30;;
61250;SDS011;47126;47.508;8.590;2023-04-24T06:01:37;3.22;;;1.40;;
61250;SDS011;47126;47.508;8.590;2023-04-24T06:04:05;3.90;;;1.30;;
61250;SDS011;47126;47.508;8.590;2023-04-24T06:06:31;2.83;;;1.60;;
61250;SDS011;47126;47.508;8.590;2023-04-24T06:08:58;3.00;;;1.90;;
61250;SDS011;47126;47.508;8.590;2023-04-24T06:11:24;2.88;;;1.60;;
61250;SDS011;47126;47.508;8.590;2023-04-24T06:13:50;3.53;;;1.83;;
61250;SDS011;47126;47.508;8.590;2023-04-24T06:22:42;3.90;;;1.48;;
61250;SDS011;47126;47.508;8.590;2023-04-24T06:25:24;5.32;;;1.77;;
61250;SDS011;47126;47.508;8.590;2023-04-24T06:27:53;5.10;;;1.92;;
61250;SDS011;47126;47.508;8.590;2023-04-24T06:33:07;4.28;;;2.13;;
61250;SDS011;47126;47.508;8.590;2023-04-24T06:35:33;7.47;;;2.25;;
61250;SDS011;47126;47.508;8.590;2023-04-24T06:38:20;3.78;;;2.30;;
61250;SDS011;47126;47.508;8.590;2023-04-24T06:40:49;5.57;;;2.83;;
61250;SDS011;47126;47.508;8.590;2023-04-24T06:49:50;5.10;;;2.13;;
61250;SDS011;47126;47.508;8.590;2023-04-24T06:55:39;5.70;;;1.85;;
61250;SDS011;47126;47.508;8.590;2023-04-24T07:04:07;3.05;;;1.70;;
61250;SDS011;47126;47.508;8.590;2023-04-24T07:07:05;3.83;;;1.40;;
61250;SDS011;47126;47.508;8.590;2023-04-24T07:09:46;2.75;;;1.50;;
61250;SDS011;47126;47.508;8.590;2023-04-24T07:15:22;2.03;;;1.33;;
61250;SDS011;47126;47.508;8.590;2023-04-24T07:20:58;1.58;;;1.30;;
61250;SDS011;47126;47.508;8.590;2023-04-24T07:26:58;2.30;;;1.50;;
61250;SDS011;47126;47.508;8.590;2023-04-24T07:33:02;2.92;;;1.73;;
61250;SDS011;47126;47.508;8.590;2023-04-24T07:35:47;2.47;;;1.55;;
61250;SDS011;47126;47.508;8.590;2023-04-24T07:41:57;6.47;;;3.40;;
61250;SDS011;47126;47.508;8.590;2023-04-24T07:47:59;5.15;;;1.58;;
61250;SDS011;47126;47.508;8.590;2023-04-24T07:51:01;4.30;;;1.88;;
61250;SDS011;47126;47.508;8.590;2023-04-24T07:53:53;4.95;;;2.03;;
61250;SDS011;47126;47.508;8.590;2023-04-24T07:59:44;4.97;;;1.73;;
61250;SDS011;47126;47.508;8.590;2023-04-24T08:02:12;3.90;;;1.70;;
61250;SDS011;47126;47.508;8.590;2023-04-24T08:04:43;5.28;;;2.22;;
61250;SDS011;47126;47.508;8.590;2023-04-24T08:26:45;5.50;;;2.42;;
61250;SDS011;47126;47.508;8.590;2023-04-24T08:29:23;4.93;;;2.35;;
61250;SDS011;47126;47.508;8.590;2023-04-24T08:38:24;6.40;;;2.58;;
61250;SDS011;47126;47.508;8.590;2023-04-24T08:50:06;4.20;;;2.17;;
61250;SDS011;47126;47.508;8.590;2023-04-24T08:52:42;3.55;;;2.17;;
61250;SDS011;47126;47.508;8.590;2023-04-24T08:55:11;6.20;;;2.47;;
61250;SDS011;47126;47.508;8.590;2023-04-24T08:57:37;4.80;;;2.38;;
61250;SDS011;47126;47.508;8.590;2023-04-24T09:00:26;3.72;;;2.03;;
61250;SDS011;47126;47.508;8.590;2023-04-24T09:02:55;3.58;;;2.00;;
61250;SDS011;47126;47.508;8.590;2023-04-24T09:05:24;9.63;;;2.80;;
61250;SDS011;47126;47.508;8.590;2023-04-24T09:07:55;6.65;;;2.60;;
61250;SDS011;47126;47.508;8.590;2023-04-24T09:10:22;6.63;;;2.45;;
61250;SDS011;47126;47.508;8.590;2023-04-24T09:12:48;7.50;;;2.28;;
61250;SDS011;47126;47.508;8.590;2023-04-24T09:15:28;7.47;;;2.40;;
61250;SDS011;47126;47.508;8.590;2023-04-24T09:17:55;6.03;;;2.25;;
61250;SDS011;47126;47.508;8.590;2023-04-24T09:23:07;4.57;;;2.25;;
61250;SDS011;47126;47.508;8.590;2023-04-24T09:25:41;5.72;;;2.10;;
61250;SDS011;47126;47.508;8.590;2023-04-24T09:28:10;7.00;;;2.38;;
61250;SDS011;47126;47.508;8.590;2023-04-24T09:30:44;6.45;;;2.20;;
61250;SDS011;47126;47.508;8.590;2023-04-24T09:33:14;5.10;;;1.92;;
61250;SDS011;47126;47.508;8.590;2023-04-24T09:35:50;4.88;;;2.00;;
61250;SDS011;47126;47.508;8.590;2023-04-24T09:38:19;7.38;;;2.40;;
61250;SDS011;47126;47.508;8.590;2023-04-24T09:40:58;4.50;;;2.28;;
61250;SDS011;47126;47.508;8.590;2023-04-24T09:43:43;6.40;;;2.45;;
61250;SDS011;47126;47.508;8.590;2023-04-24T09:46:11;4.78;;;2.30;;
61250;SDS011;47126;47.508;8.590;2023-04-24T09:48:38;5.15;;;2.33;;
61250;SDS011;47126;47.508;8.590;2023-04-24T09:51:07;5.50;;;2.53;;
61250;SDS011;47126;47.508;8.590;2023-04-24T09:53:36;3.70;;;2.20;;
61250;SDS011;47126;47.508;8.590;2023-04-24T09:56:14;9.60;;;2.50;;
61250;SDS011;47126;47.508;8.590;2023-04-24T09:58:43;4.38;;;2.30;;
61250;SDS011;47126;47.508;8.590;2023-04-24T10:01:12;6.97;;;2.63;;
61250;SDS011;47126;47.508;8.590;2023-04-24T10:03:44;7.45;;;2.78;;
61250;SDS011;47126;47.508;8.590;2023-04-24T10:06:15;4.63;;;2.13;;
61250;SDS011;47126;47.508;8.590;2023-04-24T10:08:41;7.82;;;2.28;;
61250;SDS011;47126;47.508;8.590;2023-04-24T10:11:10;4.50;;;2.58;;
61250;SDS011;47126;47.508;8.590;2023-04-24T10:13:38;5.95;;;2.33;;
61250;SDS011;47126;47.508;8.590;2023-04-24T10:16:23;5.57;;;2.42;;
61250;SDS011;47126;47.508;8.590;2023-04-24T10:19:13;4.47;;;1.90;;
61250;SDS011;47126;47.508;8.590;2023-04-24T10:27:59;4.15;;;1.92;;
61250;SDS011;47126;47.508;8.590;2023-04-24T10:30:35;8.85;;;2.75;;
61250;SDS011;47126;47.508;8.590;2023-04-24T10:36:05;23.23;;;12.75;;
61250;SDS011;47126;47.508;8.590;2023-04-24T10:38:32;4.00;;;2.20;;
61250;SDS011;47126;47.508;8.590;2023-04-24T10:41:25;7.32;;;2.40;;
61250;SDS011;47126;47.508;8.590;2023-04-24T10:44:17;9.77;;;2.28;;
61250;SDS011;47126;47.508;8.590;2023-04-24T10:46:44;4.68;;;2.20;;
61250;SDS011;47126;47.508;8.590;2023-04-24T10:49:14;3.35;;;2.33;;
61250;SDS011;47126;47.508;8.590;2023-04-24T11:02:39;6.43;;;2.22;;
61250;SDS011;47126;47.508;8.590;2023-04-24T11:05:16;3.92;;;2.15;;
61250;SDS011;47126;47.508;8.590;2023-04-24T11:10:45;4.07;;;2.10;;
61250;SDS011;47126;47.508;8.590;2023-04-24T11:13:15;2.97;;;2.00;;
61250;SDS011;47126;47.508;8.590;2023-04-24T11:15:42;6.00;;;2.13;;
61250;SDS011;47126;47.508;8.590;2023-04-24T11:18:14;5.60;;;2.42;;
61250;SDS011;47126;47.508;8.590;2023-04-24T11:20:44;7.72;;;2.40;;
61250;SDS011;47126;47.508;8.590;2023-04-24T11:23:11;3.88;;;2.10;;
61250;SDS011;47126;47.508;8.590;2023-04-24T11:28:27;6.40;;;2.85;;
61250;SDS011;47126;47.508;8.590;2023-04-24T11:30:57;7.75;;;3.05;;
61250;SDS011;47126;47.508;8.590;2023-04-24T11:33:41;5.72;;;2.20;;
61250;SDS011;47126;47.508;8.590;2023-04-24T11:36:08;6.28;;;2.28;;
61250;SDS011;47126;47.508;8.590;2023-04-24T11:38:40;3.75;;;2.20;;
61250;SDS011;47126;47.508;8.590;2023-04-24T11:41:09;4.85;;;2.03;;
61250;SDS011;47126;47.508;8.590;2023-04-24T11:43:36;2.95;;;1.70;;
61250;SDS011;47126;47.508;8.590;2023-04-24T11:46:02;6.85;;;2.22;;
61250;SDS011;47126;47.508;8.590;2023-04-24T11:48:34;7.55;;;2.20;;
61250;SDS011;47126;47.508;8.590;2023-04-24T11:51:14;4.50;;;2.05;;
61250;SDS011;47126;47.508;8.590;2023-04-24T11:53:40;7.22;;;2.40;;
61250;SDS011;47126;47.508;8.590;2023-04-24T11:56:06;5.28;;;2.20;;
61250;SDS011;47126;47.508;8.590;2023-04-24T11:59:03;4.60;;;2.30;;
61250;SDS011;47126;47.508;8.590;2023-04-24T12:01:30;6.47;;;2.15;;
61250;SDS011;47126;47.508;8.590;2023-04-24T12:07:03;2.65;;;1.90;;
61250;SDS011;47126;47.508;8.590;2023-04-24T12:12:08;5.40;;;2.00;;
61250;SDS011;47126;47.508;8.590;2023-04-24T12:14:44;5.20;;;1.90;;
61250;SDS011;47126;47.508;8.590;2023-04-24T12:17:29;6.13;;;2.17;;
61250;SDS011;47126;47.508;8.590;2023-04-24T12:20:00;2.45;;;1.70;;
61250;SDS011;47126;47.508;8.590;2023-04-24T12:25:17;5.20;;;2.00;;
61250;SDS011;47126;47.508;8.590;2023-04-24T12:27:52;5.18;;;2.15;;
61250;SDS011;47126;47.508;8.590;2023-04-24T12:30:18;4.50;;;2.00;;
61250;SDS011;47126;47.508;8.590;2023-04-24T12:32:50;17.58;;;10.27;;
61250;SDS011;47126;47.508;8.590;2023-04-24T12:35:20;16.42;;;8.07;;
61250;SDS011;47126;47.508;8.590;2023-04-24T12:37:47;8.07;;;3.20;;
61250;SDS011;47126;47.508;8.590;2023-04-24T12:40:16;9.35;;;2.85;;
61250;SDS011;47126;47.508;8.590;2023-04-24T12:42:45;4.38;;;2.17;;
61250;SDS011;47126;47.508;8.590;2023-04-24T12:45:15;13.88;;;3.53;;
61250;SDS011;47126;47.508;8.590;2023-04-24T12:47:42;3.33;;;2.08;;
61250;SDS011;47126;47.508;8.590;2023-04-24T12:50:08;4.50;;;1.90;;
61250;SDS011;47126;47.508;8.590;2023-04-24T12:52:34;4.88;;;2.63;;
61250;SDS011;47126;47.508;8.590;2023-04-24T12:55:04;8.32;;;2.15;;
61250;SDS011;47126;47.508;8.590;2023-04-24T12:57:33;4.03;;;1.85;;
61250;SDS011;47126;47.508;8.590;2023-04-24T13:00:00;5.57;;;2.25;;
61250;SDS011;47126;47.508;8.590;2023-04-24T13:12:26;6.57;;;2.15;;
61250;SDS011;47126;47.508;8.590;2023-04-24T13:14:58;5.97;;;2.20;;
61250;SDS011;47126;47.508;8.590;2023-04-24T13:17:24;6.20;;;2.08;;
61250;SDS011;47126;47.508;8.590;2023-04-24T13:19:59;5.93;;;2.10;;
61250;SDS011;47126;47.508;8.590;2023-04-24T13:22:45;4.30;;;2.25;;
61250;SDS011;47126;47.508;8.590;2023-04-24T13:25:11;5.53;;;2.30;;
61250;SDS011;47126;47.508;8.590;2023-04-24T13:27:38;3.33;;;1.90;;
61250;SDS011;47126;47.508;8.590;2023-04-24T13:30:05;5.57;;;2.05;;
61250;SDS011;47126;47.508;8.590;2023-04-24T13:32:32;8.18;;;2.28;;
61250;SDS011;47126;47.508;8.590;2023-04-24T13:35:03;6.55;;;2.10;;
61250;SDS011;47126;47.508;8.590;2023-04-24T13:37:44;4.65;;;2.10;;
61250;SDS011;47126;47.508;8.590;2023-04-24T13:40:11;7.80;;;2.70;;
61250;SDS011;47126;47.508;8.590;2023-04-24T13:42:37;3.83;;;2.08;;
61250;SDS011;47126;47.508;8.590;2023-04-24T13:45:03;4.53;;;2.40;;
61250;SDS011;47126;47.508;8.590;2023-04-24T13:47:38;6.75;;;2.42;;
61250;SDS011;47126;47.508;8.590;2023-04-24T13:50:06;4.50;;;2.20;;
61250;SDS011;47126;47.508;8.590;2023-04-24T13:52:33;3.40;;;2.13;;
61250;SDS011;47126;47.508;8.590;2023-04-24T13:54:59;5.45;;;2.22;;
61250;SDS011;47126;47.508;8.590;2023-04-24T13:57:28;9.35;;;2.63;;
61250;SDS011;47126;47.508;8.590;2023-04-24T13:59:55;4.72;;;2.33;;
61250;SDS011;47126;47.508;8.590;2023-04-24T14:02:26;5.80;;;2.05;;
61250;SDS011;47126;47.508;8.590;2023-04-24T14:04:52;4.65;;;2.20;;
61250;SDS011;47126;47.508;8.590;2023-04-24T14:07:18;5.30;;;2.38;;
61250;SDS011;47126;47.508;8.590;2023-04-24T14:09:44;5.22;;;2.63;;
61250;SDS011;47126;47.508;8.590;2023-04-24T14:12:12;4.10;;;3.05;;
61250;SDS011;47126;47.508;8.590;2023-04-24T14:14:41;4.65;;;2.10;;
61250;SDS011;47126;47.508;8.590;2023-04-24T14:17:13;6.20;;;2.50;;
61250;SDS011;47126;47.508;8.590;2023-04-24T14:19:39;6.07;;;2.67;;
61250;SDS011;47126;47.508;8.590;2023-04-24T14:22:05;4.47;;;2.47;;
61250;SDS011;47126;47.508;8.590;2023-04-24T14:24:34;5.05;;;2.33;;
61250;SDS011;47126;47.508;8.590;2023-04-24T14:27:10;4.72;;;2.55;;
61250;SDS011;47126;47.508;8.590;2023-04-24T14:29:36;5.07;;;2.20;;
61250;SDS011;47126;47.508;8.590;2023-04-24T14:32:02;5.32;;;2.20;;
61250;SDS011;47126;47.508;8.590;2023-04-24T14:34:28;5.38;;;2.63;;
61250;SDS011;47126;47.508;8.590;2023-04-24T14:36:54;5.57;;;2.25;;
61250;SDS011;47126;47.508;8.590;2023-04-24T14:39:26;4.00;;;2.38;;
61250;SDS011;47126;47.508;8.590;2023-04-24T14:41:53;4.75;;;2.25;;
61250;SDS011;47126;47.508;8.590;2023-04-24T14:44:28;7.15;;;2.30;;
61250;SDS011;47126;47.508;8.590;2023-04-24T14:46:54;4.78;;;2.50;;
61250;SDS011;47126;47.508;8.590;2023-04-24T14:49:20;5.38;;;2.17;;
61250;SDS011;47126;47.508;8.590;2023-04-24T14:51:46;4.90;;;2.13;;
61250;SDS011;47126;47.508;8.590;2023-04-24T14:54:12;3.25;;;2.10;;
61250;SDS011;47126;47.508;8.590;2023-04-24T14:56:38;4.82;;;2.45;;
61250;SDS011;47126;47.508;8.590;2023-04-24T14:59:05;3.15;;;2.13;;
61250;SDS011;47126;47.508;8.590;2023-04-24T15:01:32;3.72;;;1.92;;
61250;SDS011;47126;47.508;8.590;2023-04-24T15:03:58;3.70;;;2.00;;
61250;SDS011;47126;47.508;8.590;2023-04-24T15:06:24;4.45;;;2.13;;
61250;SDS011;47126;47.508;8.590;2023-04-24T15:08:50;8.25;;;2.30;;
61250;SDS011;47126;47.508;8.590;2023-04-24T15:11:16;4.85;;;2.10;;
61250;SDS011;47126;47.508;8.590;2023-04-24T15:13:43;7.00;;;2.55;;
61250;SDS011;47126;47.508;8.590;2023-04-24T15:16:12;3.47;;;2.08;;
61250;SDS011;47126;47.508;8.590;2023-04-24T15:18:38;3.38;;;2.00;;
61250;SDS011;47126;47.508;8.590;2023-04-24T15:21:04;3.80;;;2.10;;
61250;SDS011;47126;47.508;8.590;2023-04-24T15:23:30;4.07;;;2.28;;
61250;SDS011;47126;47.508;8.590;2023-04-24T15:25:56;5.32;;;2.15;;
61250;SDS011;47126;47.508;8.590;2023-04-24T15:28:22;3.50;;;2.00;;
61250;SDS011;47126;47.508;8.590;2023-04-24T15:30:48;4.88;;;2.75;;
61250;SDS011;47126;47.508;8.590;2023-04-24T15:33:15;4.18;;;2.10;;
61250;SDS011;47126;47.508;8.590;2023-04-24T15:35:41;6.20;;;2.88;;
61250;SDS011;47126;47.508;8.590;2023-04-24T15:38:07;6.78;;;2.45;;
61250;SDS011;47126;47.508;8.590;2023-04-24T15:40:33;4.55;;;2.35;;
61250;SDS011;47126;47.508;8.590;2023-04-24T15:42:59;3.53;;;2.35;;
61250;SDS011;47126;47.508;8.590;2023-04-24T15:45:28;3.67;;;2.30;;
61250;SDS011;47126;47.508;8.590;2023-04-24T15:47:55;8.07;;;2.40;;
61250;SDS011;47126;47.508;8.590;2023-04-24T15:50:21;3.97;;;2.20;;
61250;SDS011;47126;47.508;8.590;2023-04-24T15:52:47;5.53;;;2.15;;
61250;SDS011;47126;47.508;8.590;2023-04-24T15:55:13;6.45;;;2.63;;
61250;SDS011;47126;47.508;8.590;2023-04-24T15:57:39;4.80;;;2.05;;
61250;SDS011;47126;47.508;8.590;2023-04-24T16:00:06;6.50;;;2.45;;
61250;SDS011;47126;47.508;8.590;2023-04-24T16:02:33;4.03;;;2.25;;
61250;SDS011;47126;47.508;8.590;2023-04-24T16:04:59;4.95;;;2.35;;
61250;SDS011;47126;47.508;8.590;2023-04-24T16:07:25;7.47;;;2.28;;
61250;SDS011;47126;47.508;8.590;2023-04-24T16:09:51;6.60;;;2.40;;
61250;SDS011;47126;47.508;8.590;2023-04-24T16:12:18;5.10;;;2.42;;
61250;SDS011;47126;47.508;8.590;2023-04-24T16:14:44;7.63;;;2.70;;
61250;SDS011;47126;47.508;8.590;2023-04-24T16:17:10;10.90;;;2.80;;
61250;SDS011;47126;47.508;8.590;2023-04-24T16:19:36;4.18;;;2.50;;
61250;SDS011;47126;47.508;8.590;2023-04-24T16:22:02;4.63;;;2.50;;
61250;SDS011;47126;47.508;8.590;2023-04-24T16:24:28;7.07;;;3.00;;
61250;SDS011;47126;47.508;8.590;2023-04-24T16:26:55;5.78;;;3.30;;
61250;SDS011;47126;47.508;8.590;2023-04-24T16:29:21;5.10;;;2.90;;
61250;SDS011;47126;47.508;8.590;2023-04-24T16:31:47;5.57;;;2.97;;
61250;SDS011;47126;47.508;8.590;2023-04-24T16:34:13;8.35;;;2.67;;
61250;SDS011;47126;47.508;8.590;2023-04-24T16:36:39;3.58;;;2.45;;
61250;SDS011;47126;47.508;8.590;2023-04-24T16:39:05;4.95;;;2.50;;
61250;SDS011;47126;47.508;8.590;2023-04-24T16:41:32;4.47;;;2.85;;
61250;SDS011;47126;47.508;8.590;2023-04-24T16:43:58;5.63;;;2.78;;
61250;SDS011;47126;47.508;8.590;2023-04-24T16:46:24;6.55;;;2.92;;
61250;SDS011;47126;47.508;8.590;2023-04-24T16:48:51;9.27;;;2.60;;
61250;SDS011;47126;47.508;8.590;2023-04-24T16:51:16;6.18;;;2.75;;
61250;SDS011;47126;47.508;8.590;2023-04-24T16:53:42;7.18;;;3.15;;
61250;SDS011;47126;47.508;8.590;2023-04-24T16:56:08;6.43;;;2.92;;
61250;SDS011;47126;47.508;8.590;2023-04-24T16:58:34;5.65;;;3.22;;
61250;SDS011;47126;47.508;8.590;2023-04-24T17:01:00;5.13;;;3.00;;
61250;SDS011;47126;47.508;8.590;2023-04-24T17:03:26;7.70;;;3.80;;
61250;SDS011;47126;47.508;8.590;2023-04-24T17:05:52;5.97;;;2.78;;
61250;SDS011;47126;47.508;8.590;2023-04-24T17:08:18;5.55;;;2.75;;